createdAt,value
2022-12-26T00:01:02.847Z,96409.94
2022-12-26T00:03:31.037Z,96403.53
2022-12-26T00:05:58.095Z,96395.75
2022-12-26T00:08:25.182Z,96408.34
2022-12-26T00:10:52.321Z,96395.56
2022-12-26T00:13:39.384Z,96390.56
2022-12-26T00:16:19.765Z,96375.22
2022-12-26T00:18:47.317Z,96375.44
2022-12-26T00:21:15.943Z,96377.41
2022-12-26T00:23:43.802Z,96374.44
2022-12-26T00:26:17.542Z,96374.81
2022-12-26T00:28:45.116Z,96371.22
2022-12-26T00:31:15.855Z,96379.56
2022-12-26T00:33:43.084Z,96374.94
2022-12-26T00:36:22.358Z,96362.78
2022-12-26T00:38:50.415Z,96361.59
2022-12-26T00:41:18.624Z,96386.72
2022-12-26T00:43:46.235Z,96385.31
2022-12-26T00:46:13.644Z,96395.50
2022-12-26T00:48:42.244Z,96385.72
2022-12-26T00:51:09.425Z,96395.31
2022-12-26T00:53:36.826Z,96389.91
2022-12-26T00:56:04.636Z,96389.53
2022-12-26T00:58:31.690Z,96379.75
2022-12-26T01:01:17.488Z,96373.56
2022-12-26T01:03:46.716Z,96373.75
2022-12-26T01:06:14.452Z,96371.16
2022-12-26T01:08:41.844Z,96357.22
2022-12-26T01:11:11.428Z,96353.63
2022-12-26T01:13:38.838Z,96382.69
2022-12-26T01:16:06.858Z,96384.69
2022-12-26T01:18:35.153Z,96374.72
2022-12-26T01:21:06.944Z,96365.56
2022-12-26T01:23:34.136Z,96389.69
2022-12-26T01:26:18.985Z,96391.88
2022-12-26T01:28:52.451Z,96384.97
2022-12-26T01:31:21.000Z,96382.06
2022-12-26T01:33:48.284Z,96382.88
2022-12-26T01:36:16.808Z,96369.94
2022-12-26T01:38:44.541Z,96366.53
2022-12-26T01:41:20.354Z,96365.16
2022-12-26T01:44:01.583Z,96388.69
2022-12-26T01:46:39.709Z,96386.50
2022-12-26T01:49:35.987Z,96380.72
2022-12-26T01:52:09.994Z,96382.53
2022-12-26T01:54:42.642Z,96386.53
2022-12-26T01:57:24.032Z,96385.91
2022-12-26T01:59:52.393Z,96374.94
2022-12-26T02:02:20.549Z,96369.75
2022-12-26T02:05:10.236Z,96374.56
2022-12-26T02:07:42.192Z,96372.19
2022-12-26T02:10:14.664Z,96371.81
2022-12-26T02:12:41.824Z,96376.22
2022-12-26T02:15:12.908Z,96374.19
2022-12-26T02:17:42.930Z,96372.81
2022-12-26T02:20:23.063Z,96386.53
2022-12-26T02:23:12.072Z,96387.13
2022-12-26T02:26:00.081Z,96381.91
2022-12-26T02:28:26.984Z,96393.44
2022-12-26T02:31:00.191Z,96386.16
2022-12-26T02:33:59.163Z,96402.09
2022-12-26T02:36:40.292Z,96403.25
2022-12-26T02:39:46.637Z,96416.16
2022-12-26T02:42:35.540Z,96406.59
2022-12-26T02:45:28.243Z,96408.78
2022-12-26T02:48:20.287Z,96403.97
2022-12-26T02:51:55.965Z,96420.28
2022-12-26T02:54:59.289Z,96416.13
2022-12-26T02:57:56.505Z,96423.75
2022-12-26T03:00:42.105Z,96433.13
2022-12-26T03:03:33.852Z,96438.47
2022-12-26T03:06:23.960Z,96428.75
2022-12-26T03:09:15.531Z,96425.34
2022-12-26T03:12:04.295Z,96423.75
2022-12-26T03:14:38.706Z,96416.94
2022-12-26T03:17:21.475Z,96407.75
2022-12-26T03:20:01.775Z,96417.94
2022-12-26T03:22:44.202Z,96421.47
2022-12-26T03:25:44.168Z,96422.09
2022-12-26T03:28:13.912Z,96424.31
2022-12-26T03:30:50.659Z,96418.38
2022-12-26T03:33:39.028Z,96416.00
2022-12-26T03:36:07.965Z,96419.22
2022-12-26T03:38:58.707Z,96412.47
2022-12-26T03:41:53.855Z,96412.72
2022-12-26T03:44:56.605Z,96407.78
2022-12-26T03:48:08.406Z,96409.56
2022-12-26T03:51:07.367Z,96406.34
2022-12-26T03:54:09.167Z,96414.91
2022-12-26T03:57:11.526Z,96415.72
2022-12-26T04:00:07.974Z,96424.28
2022-12-26T04:03:00.931Z,96418.69
2022-12-26T04:05:46.967Z,96410.75
2022-12-26T04:08:48.658Z,96401.56
2022-12-26T04:11:36.056Z,96400.97
2022-12-26T04:15:01.705Z,96398.75
2022-12-26T04:18:13.086Z,96408.56
2022-12-26T04:21:37.265Z,96407.59
2022-12-26T04:24:32.824Z,96409.94
2022-12-26T04:27:22.447Z,96409.56
2022-12-26T04:30:08.682Z,96405.19
2022-12-26T04:33:02.281Z,96401.97
2022-12-26T04:36:01.663Z,96408.56
2022-12-26T04:38:52.416Z,96390.56
2022-12-26T04:41:39.545Z,96400.91
2022-12-26T04:44:11.466Z,96412.06
2022-12-26T04:46:41.595Z,96410.06
2022-12-26T04:49:29.932Z,96401.94
2022-12-26T04:51:59.049Z,96402.31
2022-12-26T04:54:26.784Z,96406.53
2022-12-26T04:56:54.171Z,96399.97
2022-12-26T04:59:22.905Z,96407.94
2022-12-26T05:02:08.554Z,96400.53
2022-12-26T05:04:54.504Z,96397.75
2022-12-26T05:07:48.748Z,96404.16
2022-12-26T05:10:20.826Z,96402.41
2022-12-26T05:12:48.208Z,96402.59
2022-12-26T05:15:15.903Z,96407.00
2022-12-26T05:18:01.604Z,96401.44
2022-12-26T05:20:46.636Z,96404.25
2022-12-26T05:23:47.013Z,96409.25
2022-12-26T05:26:42.204Z,96409.66
2022-12-26T05:29:09.647Z,96411.47
2022-12-26T05:31:37.348Z,96408.53
2022-12-26T05:34:06.084Z,96413.09
2022-12-26T05:36:39.306Z,96422.50
2022-12-26T05:39:07.619Z,96424.72
2022-12-26T05:41:34.769Z,96423.53
2022-12-26T05:44:02.168Z,96412.72
2022-12-26T05:46:29.456Z,96407.72
2022-12-26T05:48:56.645Z,96414.72
2022-12-26T05:51:23.927Z,96423.09
2022-12-26T05:53:52.242Z,96419.31
2022-12-26T05:56:20.349Z,96419.91
2022-12-26T05:58:47.804Z,96417.94
2022-12-26T06:01:20.410Z,96412.16
2022-12-26T06:03:53.483Z,96438.31
2022-12-26T06:06:22.086Z,96440.28
2022-12-26T06:08:54.264Z,96429.09
2022-12-26T06:11:22.175Z,96431.88
2022-12-26T06:13:49.338Z,96432.28
2022-12-26T06:16:19.011Z,96437.84
2022-12-26T06:18:46.567Z,96433.63
2022-12-26T06:21:17.331Z,96434.47
2022-12-26T06:23:44.770Z,96437.06
2022-12-26T06:26:13.165Z,96438.81
2022-12-26T06:28:42.213Z,96444.66
2022-12-26T06:31:13.179Z,96446.44
2022-12-26T06:33:40.926Z,96440.47
2022-12-26T06:36:11.527Z,96433.31
2022-12-26T06:38:39.524Z,96435.91
2022-12-26T06:41:08.765Z,96439.31
2022-12-26T06:43:36.701Z,96441.53
2022-12-26T06:46:06.816Z,96450.13
2022-12-26T06:48:39.830Z,96448.88
2022-12-26T06:51:14.605Z,96454.66
2022-12-26T06:53:42.804Z,96465.63
2022-12-26T06:56:19.278Z,96468.03
2022-12-26T06:58:46.933Z,96468.03
2022-12-26T07:01:19.382Z,96465.81
2022-12-26T07:03:51.637Z,96463.81
2022-12-26T07:06:31.736Z,96472.59
2022-12-26T07:09:05.458Z,96474.81
2022-12-26T07:11:36.008Z,96479.41
2022-12-26T07:14:04.737Z,96476.41
2022-12-26T07:16:35.197Z,96475.03
2022-12-26T07:19:02.575Z,96471.06
2022-12-26T07:21:33.462Z,96478.22
2022-12-26T07:24:04.008Z,96477.03
2022-12-26T07:26:31.288Z,96476.63
2022-12-26T07:28:59.772Z,96482.22
2022-12-26T07:31:29.957Z,96474.84
2022-12-26T07:33:57.603Z,96483.44
2022-12-26T07:36:28.445Z,96482.84
2022-12-26T07:38:56.055Z,96459.50
2022-12-26T07:41:41.931Z,96468.28
2022-12-26T07:44:12.342Z,96465.50
2022-12-26T07:46:39.623Z,96459.09
2022-12-26T07:49:07.538Z,96467.91
2022-12-26T07:51:34.815Z,96462.72
2022-12-26T07:54:08.895Z,96461.31
2022-12-26T07:56:38.205Z,96466.72
2022-12-26T07:59:05.372Z,96463.09
2022-12-26T08:01:33.269Z,96475.28
2022-12-26T08:04:00.744Z,96462.25
2022-12-26T08:06:28.250Z,96468.22
2022-12-26T08:08:55.445Z,96468.59
2022-12-26T08:11:24.705Z,96470.59
2022-12-26T08:13:53.012Z,96480.19
2022-12-26T08:16:20.479Z,96474.97
2022-12-26T08:18:48.087Z,96473.81
2022-12-26T08:21:15.674Z,96474.03
2022-12-26T08:23:43.213Z,96476.41
2022-12-26T08:26:12.537Z,96481.97
2022-12-26T08:28:42.405Z,96482.19
2022-12-26T08:31:11.051Z,96484.19
2022-12-26T08:33:38.406Z,96475.75
2022-12-26T08:36:08.165Z,96476.31
2022-12-26T08:38:36.138Z,96477.91
2022-12-26T08:41:03.616Z,96478.28
2022-12-26T08:44:24.843Z,96483.44
2022-12-26T08:46:20.380Z,96487.97
2022-12-26T08:48:48.577Z,96485.91
2022-12-26T08:51:23.106Z,96482.25
2022-12-26T08:53:52.007Z,96486.16
2022-12-26T08:56:27.647Z,96491.72
2022-12-26T08:58:55.644Z,96489.41
2022-12-26T09:01:25.920Z,96494.91
2022-12-26T09:03:55.492Z,96496.03
2022-12-26T09:06:23.445Z,96494.97
2022-12-26T09:08:51.244Z,96497.50
2022-12-26T09:11:27.128Z,96488.75
2022-12-26T09:13:55.413Z,96497.69
2022-12-26T09:16:27.437Z,96495.97
2022-12-26T09:18:59.485Z,96503.06
2022-12-26T09:21:27.809Z,96496.34
2022-12-26T09:23:59.769Z,96502.41
2022-12-26T09:26:29.196Z,96501.47
2022-12-26T09:28:57.175Z,96497.91
2022-12-26T09:31:28.884Z,96498.56
2022-12-26T09:33:56.769Z,96495.88
2022-12-26T09:36:30.923Z,96502.41
2022-12-26T09:38:59.644Z,96501.06
2022-12-26T09:41:44.725Z,96492.22
2022-12-26T09:44:48.769Z,96490.88
2022-12-26T09:47:35.848Z,96489.19
2022-12-26T09:50:14.284Z,96491.69
2022-12-26T09:52:53.403Z,96495.25
2022-12-26T09:55:47.436Z,96500.47
2022-12-26T09:58:27.062Z,96503.09
2022-12-26T10:00:59.285Z,96490.25
2022-12-26T10:03:27.654Z,96491.03
2022-12-26T10:06:10.163Z,96496.25
2022-12-26T10:08:47.286Z,96495.00
2022-12-26T10:11:45.364Z,96499.81
2022-12-26T10:14:24.605Z,96484.47
2022-12-26T10:17:22.810Z,96485.56
2022-12-26T10:20:05.368Z,96479.06
2022-12-26T10:22:49.467Z,96475.72
2022-12-26T10:25:28.838Z,96463.72
2022-12-26T10:28:00.775Z,96455.63
2022-12-26T10:30:36.205Z,96456.22
2022-12-26T10:33:13.244Z,96457.84
2022-12-26T10:35:44.009Z,96459.91
2022-12-26T10:38:15.445Z,96460.91
2022-12-26T10:40:47.056Z,96455.13
2022-12-26T10:43:32.374Z,96457.97
2022-12-26T10:46:37.512Z,96444.97
2022-12-26T10:49:05.029Z,96436.63
2022-12-26T10:51:32.371Z,96441.44
2022-12-26T10:53:59.844Z,96443.00
2022-12-26T10:56:28.102Z,96462.13
2022-12-26T10:59:05.061Z,96465.31
2022-12-26T11:01:38.276Z,96460.34
2022-12-26T11:04:37.433Z,96456.44
2022-12-26T11:07:11.523Z,96453.84
2022-12-26T11:09:45.911Z,96446.25
2022-12-26T11:12:25.489Z,96443.09
2022-12-26T11:14:59.725Z,96447.31
2022-12-26T11:17:33.930Z,96440.75
2022-12-26T11:20:16.719Z,96434.41
2022-12-26T11:22:45.246Z,96432.03
2022-12-26T11:25:20.014Z,96418.84
2022-12-26T11:27:53.409Z,96430.75
2022-12-26T11:30:31.962Z,96425.19
2022-12-26T11:33:13.719Z,96418.84
2022-12-26T11:36:28.208Z,96419.38
2022-12-26T11:39:03.695Z,96427.03
2022-12-26T11:41:34.046Z,96434.13
2022-12-26T11:44:41.412Z,96426.47
2022-12-26T11:47:08.684Z,96434.66
2022-12-26T11:49:41.047Z,96439.16
2022-12-26T11:52:38.470Z,96429.16
2022-12-26T11:55:24.329Z,96428.63
2022-12-26T11:58:07.018Z,96426.78
2022-12-26T12:00:42.973Z,96426.78
2022-12-26T12:13:36.205Z,96417.78
2022-12-26T12:16:21.342Z,96420.66
2022-12-26T12:19:02.885Z,96410.13
2022-12-26T12:21:46.487Z,96415.69
2022-12-26T12:24:43.933Z,96420.72
2022-12-26T12:27:24.616Z,96420.19
2022-12-26T12:30:20.018Z,96418.09
2022-12-26T12:33:11.945Z,96416.19
2022-12-26T12:35:45.406Z,96403.66
2022-12-26T12:38:32.965Z,96396.66
2022-12-26T12:41:25.867Z,96393.28
2022-12-26T12:44:16.807Z,96393.00
2022-12-26T12:47:06.525Z,96396.50
2022-12-26T12:50:11.841Z,96401.31
2022-12-26T12:52:46.604Z,96408.38
2022-12-26T12:55:22.926Z,96404.75
2022-12-26T12:58:01.554Z,96398.75
2022-12-26T13:00:38.825Z,96397.63
2022-12-26T13:03:18.756Z,96393.69
2022-12-26T13:06:16.565Z,96398.69
2022-12-26T13:08:51.583Z,96387.38
2022-12-26T13:11:35.204Z,96403.06
2022-12-26T13:14:12.495Z,96401.63
2022-12-26T13:16:43.909Z,96412.63
2022-12-26T13:19:25.898Z,96409.06
2022-12-26T13:21:57.890Z,96418.97
2022-12-26T13:24:37.329Z,96419.19
2022-12-26T13:27:04.486Z,96417.72
2022-12-26T13:29:31.529Z,96416.47
2022-12-26T13:31:59.898Z,96422.97
2022-12-26T13:34:28.168Z,96415.09
2022-12-26T13:36:57.487Z,96415.16
2022-12-26T13:39:27.469Z,96408.47
2022-12-26T13:42:21.285Z,96416.31
2022-12-26T13:44:53.611Z,96419.66
2022-12-26T13:47:39.847Z,96418.91
2022-12-26T13:50:49.941Z,96427.03
2022-12-26T13:53:24.963Z,96432.25
2022-12-26T13:56:03.645Z,96422.72
2022-12-26T13:58:42.732Z,96423.19
2022-12-26T14:01:36.196Z,96420.50
2022-12-26T14:04:21.962Z,96426.72
2022-12-26T14:07:04.494Z,96423.97
2022-12-26T14:09:53.084Z,96427.31
2022-12-26T14:12:34.004Z,96429.19
2022-12-26T14:15:25.049Z,96422.50
2022-12-26T14:18:07.286Z,96418.19
2022-12-26T14:20:45.404Z,96417.81
2022-12-26T14:23:32.883Z,96426.31
2022-12-26T14:26:29.364Z,96424.09
2022-12-26T14:29:30.605Z,96431.81
2022-12-26T14:32:16.245Z,96431.97
2022-12-26T14:35:10.562Z,96428.97
2022-12-26T14:37:48.327Z,96429.09
2022-12-26T14:40:26.774Z,96439.69
2022-12-26T14:43:12.534Z,96432.47
2022-12-26T14:45:42.945Z,96429.19
2022-12-26T14:48:15.968Z,96424.06
2022-12-26T14:51:09.227Z,96416.22
2022-12-26T14:53:36.584Z,96418.91
2022-12-26T14:56:33.334Z,96423.91
2022-12-26T14:59:22.375Z,96412.94
2022-12-26T15:02:20.694Z,96415.41
2022-12-26T15:05:08.812Z,96408.06
2022-12-26T15:07:56.092Z,96407.09
2022-12-26T15:10:29.253Z,96407.63
2022-12-26T15:13:11.485Z,96407.91
2022-12-26T15:16:15.981Z,96413.66
2022-12-26T15:19:09.245Z,96409.28
2022-12-26T15:21:54.765Z,96410.88
2022-12-26T15:25:18.255Z,96402.72
2022-12-26T15:28:15.828Z,96402.03
2022-12-26T15:30:52.374Z,96410.94
2022-12-26T15:33:29.567Z,96405.25
2022-12-26T15:36:19.928Z,96414.97
2022-12-26T15:38:58.487Z,96416.91
2022-12-26T15:41:43.847Z,96416.00
2022-12-26T15:44:13.725Z,96413.03
2022-12-26T15:46:55.766Z,96421.19
2022-12-26T15:49:38.164Z,96422.13
2022-12-26T15:52:30.486Z,96428.25
2022-12-26T15:54:57.605Z,96418.56
2022-12-26T15:57:59.972Z,96419.13
2022-12-26T16:00:33.493Z,96423.88
2022-12-26T16:03:18.763Z,96431.34
2022-12-26T16:05:51.737Z,96420.84
2022-12-26T16:08:43.698Z,96416.72
2022-12-26T16:11:10.856Z,96418.06
2022-12-26T16:13:53.571Z,96411.13
2022-12-26T16:16:30.689Z,96402.69
2022-12-26T16:18:58.403Z,96405.19
2022-12-26T16:21:47.746Z,96391.63
2022-12-26T16:24:22.411Z,96391.56
2022-12-26T16:26:49.769Z,96386.44
2022-12-26T16:29:21.013Z,96383.69
2022-12-26T16:31:48.443Z,96386.72
2022-12-26T16:34:21.207Z,96400.16
2022-12-26T16:36:51.373Z,96408.78
2022-12-26T16:39:23.613Z,96401.75
2022-12-26T16:42:16.511Z,96395.53
2022-12-26T16:44:44.686Z,96410.59
2022-12-26T16:47:14.681Z,96410.66
2022-12-26T16:49:43.762Z,96404.50
2022-12-26T16:52:43.892Z,96390.88
2022-12-26T16:55:31.613Z,96410.59
2022-12-26T16:58:02.133Z,96416.09
2022-12-26T17:00:29.444Z,96410.56
2022-12-26T17:03:00.208Z,96410.06
2022-12-26T17:05:32.216Z,96418.31
2022-12-26T17:08:02.449Z,96414.09
2022-12-26T17:10:36.360Z,96406.13
2022-12-26T17:13:09.405Z,96409.16
2022-12-26T17:15:46.551Z,96411.22
2022-12-26T17:18:40.293Z,96416.03
2022-12-26T17:21:25.660Z,96414.22
2022-12-26T17:24:08.329Z,96410.03
2022-12-26T17:26:40.575Z,96428.13
2022-12-26T17:29:37.003Z,96411.09
2022-12-26T17:32:14.735Z,96411.09
2022-12-26T17:34:42.614Z,96410.09
2022-12-26T17:37:19.893Z,96423.09
2022-12-26T17:40:02.463Z,96414.34
2022-12-26T17:42:31.689Z,96422.38
2022-12-26T17:44:59.209Z,96422.41
2022-12-26T17:47:29.124Z,96405.41
2022-12-26T17:49:57.410Z,96403.84
2022-12-26T17:52:26.092Z,96395.91
2022-12-26T17:54:54.090Z,96405.19
2022-12-26T17:57:25.412Z,96399.44
2022-12-26T17:59:54.003Z,96396.88
2022-12-26T18:02:22.281Z,96403.88
2022-12-26T18:04:50.648Z,96398.50
2022-12-26T18:07:27.225Z,96409.97
2022-12-26T18:09:58.285Z,96415.38
2022-12-26T18:12:25.564Z,96420.00
2022-12-26T18:14:59.339Z,96411.59
2022-12-26T18:17:32.088Z,96407.56
2022-12-26T18:19:59.774Z,96401.16
2022-12-26T18:22:26.929Z,96402.91
2022-12-26T18:24:54.342Z,96397.09
2022-12-26T18:27:28.973Z,96386.06
2022-12-26T18:29:56.324Z,96382.44
2022-12-26T18:32:29.324Z,96385.84
2022-12-26T18:34:57.457Z,96389.28
2022-12-26T18:37:28.045Z,96395.06
2022-12-26T18:39:55.405Z,96396.25
2022-12-26T18:42:22.606Z,96398.06
2022-12-26T18:44:49.773Z,96404.47
2022-12-26T18:47:19.368Z,96402.31
2022-12-26T18:49:47.856Z,96400.50
2022-12-26T18:52:17.703Z,96399.88
2022-12-26T18:54:45.388Z,96402.44
2022-12-26T18:57:20.945Z,96405.72
2022-12-26T18:59:48.616Z,96411.22
2022-12-26T19:02:18.569Z,96403.81
2022-12-26T19:04:48.883Z,96401.59
2022-12-26T19:07:18.047Z,96397.81
2022-12-26T19:09:47.171Z,96384.38
2022-12-26T19:12:15.172Z,96379.13
2022-12-26T19:14:44.626Z,96366.06
2022-12-26T19:17:11.804Z,96348.00
2022-12-26T19:19:39.164Z,96346.84
2022-12-26T19:22:06.367Z,96364.13
2022-12-26T19:24:34.376Z,96374.78
2022-12-26T19:27:02.606Z,96386.38
2022-12-26T19:29:29.768Z,96394.94
2022-12-26T19:31:57.430Z,96385.69
2022-12-26T19:34:24.768Z,96388.84
2022-12-26T19:36:51.966Z,96391.81
2022-12-26T19:39:19.283Z,96403.22
2022-12-26T19:41:46.647Z,96401.97
2022-12-26T19:44:14.088Z,96406.94
2022-12-26T19:46:41.383Z,96407.75
2022-12-26T19:49:08.686Z,96417.75
2022-12-26T19:51:35.808Z,96425.38
2022-12-26T19:54:03.165Z,96430.16
2022-12-26T19:56:30.500Z,96421.34
2022-12-26T19:58:57.654Z,96433.56
2022-12-26T20:01:28.267Z,96440.53
2022-12-26T20:04:01.967Z,96441.91
2022-12-26T20:06:31.404Z,96449.28
2022-12-26T20:09:01.243Z,96447.06
2022-12-26T20:11:31.170Z,96444.56
2022-12-26T20:14:00.465Z,96444.47
2022-12-26T20:19:15.792Z,96461.03
2022-12-26T20:21:42.977Z,96473.88
2022-12-26T20:24:11.529Z,96488.50
2022-12-26T20:26:39.287Z,96487.50
2022-12-26T20:29:06.892Z,96486.09
2022-12-26T20:31:34.125Z,96485.69
2022-12-26T20:34:02.141Z,96488.13
2022-12-26T20:36:31.649Z,96495.34
2022-12-26T20:39:01.007Z,96508.34
2022-12-26T20:41:29.856Z,96505.53
2022-12-26T20:43:57.526Z,96502.13
2022-12-26T20:46:28.389Z,96504.53
2022-12-26T20:48:56.058Z,96499.25
2022-12-26T20:51:29.024Z,96490.97
2022-12-26T20:54:00.807Z,96505.50
2022-12-26T20:56:29.129Z,96504.03
2022-12-26T20:58:59.691Z,96497.28
2022-12-26T21:01:28.315Z,96510.34
2022-12-26T21:03:57.519Z,96518.19
2022-12-26T21:06:30.209Z,96518.38
2022-12-26T21:08:58.326Z,96527.34
2022-12-26T21:11:30.966Z,96534.38
2022-12-26T21:14:06.700Z,96530.91
2022-12-26T21:16:37.166Z,96541.78
2022-12-26T21:19:09.391Z,96548.59
2022-12-26T21:21:44.449Z,96555.63
2022-12-26T21:24:15.203Z,96560.47
2022-12-26T21:26:44.173Z,96556.25
2022-12-26T21:29:17.402Z,96549.88
2022-12-26T21:31:45.603Z,96549.47
2022-12-26T21:34:17.694Z,96557.50
2022-12-26T21:37:06.087Z,96567.13
2022-12-26T21:39:34.964Z,96564.72
2022-12-26T21:42:02.938Z,96564.72
2022-12-26T21:44:30.331Z,96550.03
2022-12-26T21:46:57.547Z,96563.75
2022-12-26T21:49:25.086Z,96565.56
2022-12-26T21:51:52.284Z,96576.84
2022-12-26T21:54:40.021Z,96594.00
2022-12-26T21:57:12.005Z,96594.75
2022-12-26T21:59:57.257Z,96598.50
2022-12-26T22:02:45.351Z,96599.25
2022-12-26T22:05:12.645Z,96598.41
2022-12-26T22:07:39.886Z,96598.59
2022-12-26T22:10:07.733Z,96603.09
2022-12-26T22:12:53.291Z,96605.22
2022-12-26T22:15:39.113Z,96603.75
2022-12-26T22:18:06.392Z,96601.81
2022-12-26T22:20:35.885Z,96619.66
2022-12-26T22:23:04.018Z,96623.22
2022-12-26T22:25:31.247Z,96609.31
2022-12-26T22:28:00.250Z,96613.06
2022-12-26T22:30:27.488Z,96607.91
2022-12-26T22:32:54.648Z,96630.41
2022-12-26T22:35:22.001Z,96626.19
2022-12-26T22:37:49.331Z,96625.03
2022-12-26T22:40:16.525Z,96610.09
2022-12-26T22:42:43.771Z,96607.69
2022-12-26T22:45:11.167Z,96617.78
2022-12-26T22:47:38.454Z,96606.28
2022-12-26T22:50:05.925Z,96609.09
2022-12-26T22:52:33.169Z,96609.50
2022-12-26T22:55:00.250Z,96592.34
2022-12-26T22:57:27.491Z,96590.75
2022-12-26T23:00:08.107Z,96580.16
2022-12-26T23:02:36.640Z,96600.19
2022-12-26T23:05:04.826Z,96595.09
2022-12-26T23:07:32.377Z,96596.50
2022-12-26T23:10:00.730Z,96606.56
2022-12-26T23:12:43.630Z,96596.03
2022-12-26T23:15:17.486Z,96593.88
2022-12-26T23:18:32.451Z,96600.47
2022-12-26T23:21:26.010Z,96602.00
2022-12-26T23:23:53.442Z,96609.28
2022-12-26T23:26:20.563Z,96599.16
2022-12-26T23:29:19.807Z,96603.91
2022-12-26T23:31:47.127Z,96599.78
2022-12-26T23:34:14.653Z,96602.31
2022-12-26T23:36:42.045Z,96601.66
2022-12-26T23:39:09.275Z,96600.19
2022-12-26T23:41:36.522Z,96596.69
2022-12-26T23:44:03.765Z,96596.94
2022-12-26T23:46:31.018Z,96589.09
2022-12-26T23:48:58.445Z,96579.06
2022-12-26T23:51:25.923Z,96570.66
2022-12-26T23:53:53.268Z,96561.38
2022-12-26T23:56:20.489Z,96559.09
2022-12-26T23:58:47.702Z,96564.69
